Time;durP1;ratioP1;P1;durP2;ratioP2;P2;SDS_P1;SDS_P2;PMS_P1;PMS_P2;Temp;Humidity;BMP_temperature;BMP_pressure;BME280_temperature;BME280_humidity;BME280_pressure;Samples;Min_cycle;Max_cycle;Signal;HPM_P1;HPM_P2
2022/03/30 00:01:14;;;;;;;12.93;5.10;;;17.20;47.30;;;;;;4963427;28;20458;-81
2022/03/30 00:03:43;;;;;;;16.03;5.23;;;17.10;47.20;;;;;;4964299;28;20522;-81
2022/03/30 00:06:11;;;;;;;10.60;4.80;;;17.10;47.20;;;;;;4965273;28;20454;-81
2022/03/30 00:08:41;;;;;;;15.13;5.27;;;17.10;47.20;;;;;;4945450;28;20476;-80
2022/03/30 00:11:09;;;;;;;12.30;4.53;;;17.10;47.30;;;;;;4964718;29;20447;-81
2022/03/30 00:13:37;;;;;;;11.37;4.60;;;17.10;47.20;;;;;;4962509;28;20442;-80
2022/03/30 00:16:06;;;;;;;10.83;4.43;;;17.00;47.20;;;;;;4962560;28;20455;-81
2022/03/30 00:18:36;;;;;;;10.83;4.40;;;17.00;47.30;;;;;;4963306;28;20451;-80
2022/03/30 00:21:04;;;;;;;9.03;4.50;;;17.00;47.30;;;;;;4962215;28;20453;-81
2022/03/30 00:23:33;;;;;;;8.70;4.53;;;17.00;47.20;;;;;;4962215;28;20506;-81
2022/03/30 00:26:01;;;;;;;13.17;4.80;;;16.90;47.20;;;;;;4942767;28;20456;-80
2022/03/30 00:28:29;;;;;;;9.87;4.43;;;16.90;47.20;;;;;;4943602;29;20471;-80
2022/03/30 00:30:58;;;;;;;12.30;4.00;;;16.90;47.10;;;;;;4943868;29;20460;-81
2022/03/30 00:33:26;;;;;;;9.67;4.10;;;16.90;47.20;;;;;;4943534;29;20510;-81
2022/03/30 00:35:56;;;;;;;11.87;3.83;;;16.90;47.20;;;;;;4943404;28;20452;-81
2022/03/30 00:38:24;;;;;;;8.97;4.10;;;16.90;47.10;;;;;;4943258;29;20456;-81
2022/03/30 00:40:52;;;;;;;8.10;4.17;;;16.90;47.10;;;;;;4941601;29;20507;-81
2022/03/30 00:43:21;;;;;;;7.43;3.60;;;16.90;47.20;;;;;;4955669;28;20447;-81
2022/03/30 00:45:49;;;;;;;5.60;3.60;;;16.90;47.20;;;;;;4961944;28;20530;-81
2022/03/30 00:48:17;;;;;;;8.17;3.93;;;16.80;47.00;;;;;;4961701;28;20479;-81
2022/03/30 00:50:45;;;;;;;6.87;4.03;;;16.80;47.10;;;;;;4962658;28;20483;-81
2022/03/30 00:53:15;;;;;;;7.63;4.13;;;16.90;47.20;;;;;;4964809;28;20483;-81
2022/03/30 00:55:43;;;;;;;8.37;4.40;;;16.80;47.10;;;;;;4972224;28;20451;-81
2022/03/30 00:58:11;;;;;;;5.67;3.30;;;16.80;47.20;;;;;;4960618;28;20482;-82
2022/03/30 01:00:40;;;;;;;7.90;4.00;;;16.80;47.10;;;;;;4965513;28;20454;-82
2022/03/30 01:03:08;;;;;;;7.50;4.10;;;16.80;47.20;;;;;;4964884;28;20478;-82
2022/03/30 01:05:37;;;;;;;5.37;3.50;;;16.80;47.20;;;;;;4963542;28;20519;-81
2022/03/30 01:08:05;;;;;;;5.93;3.50;;;16.80;47.10;;;;;;4963295;28;20554;-82
2022/03/30 01:10:35;;;;;;;7.47;3.50;;;16.80;47.10;;;;;;4962975;28;20451;-82
2022/03/30 01:13:05;;;;;;;8.83;3.57;;;16.70;47.10;;;;;;4963363;28;20447;-81
2022/03/30 01:15:34;;;;;;;6.33;3.20;;;16.70;47.00;;;;;;4953235;28;20459;-81
2022/03/30 01:18:03;;;;;;;7.57;3.70;;;16.70;47.00;;;;;;4963854;28;20455;-82
2022/03/30 01:20:31;;;;;;;7.90;3.77;;;16.70;47.60;;;;;;4964319;28;20447;-82
2022/03/30 01:23:02;;;;;;;8.17;4.10;;;16.70;47.00;;;;;;4965037;28;20451;-82
2022/03/30 01:25:30;;;;;;;7.60;3.40;;;16.70;47.00;;;;;;4964914;28;20444;-81
2022/03/30 01:27:59;;;;;;;8.03;3.73;;;16.70;47.10;;;;;;4965036;28;20475;-81
2022/03/30 01:33:12;;;;;;;6.70;3.50;;;16.70;47.20;;;;;;4957069;28;20483;-83
2022/03/30 01:35:41;;;;;;;6.27;3.33;;;16.70;47.10;;;;;;4946248;29;20448;-82
2022/03/30 01:38:11;;;;;;;9.00;3.27;;;16.60;47.00;;;;;;4948459;29;20483;-82
2022/03/30 01:40:39;;;;;;;6.27;3.80;;;16.60;47.10;;;;;;4949554;28;20468;-82
2022/03/30 01:43:07;;;;;;;6.97;3.83;;;16.60;47.10;;;;;;4948619;29;20452;-83
2022/03/30 01:45:36;;;;;;;5.20;3.30;;;16.60;47.10;;;;;;4949258;29;20507;-82
2022/03/30 01:48:05;;;;;;;4.30;3.10;;;16.70;47.20;;;;;;4948784;29;20471;-82
2022/03/30 01:50:33;;;;;;;6.87;3.23;;;16.60;47.10;;;;;;4968348;28;20447;-82
2022/03/30 01:53:01;;;;;;;3.60;3.27;;;16.60;47.10;;;;;;4950972;28;20443;-82
2022/03/30 01:55:31;;;;;;;7.13;3.20;;;16.60;47.10;;;;;;4950005;28;20451;-83
2022/03/30 01:57:59;;;;;;;4.53;2.33;;;16.60;47.70;;;;;;4948338;29;20541;-82
2022/03/30 02:00:28;;;;;;;5.93;3.37;;;16.60;47.10;;;;;;4953678;28;20471;-81
2022/03/30 02:02:56;;;;;;;4.07;3.00;;;16.60;47.20;;;;;;4955721;28;20517;-82
2022/03/30 02:05:24;;;;;;;10.60;3.30;;;16.60;47.10;;;;;;4955150;29;20480;-82
2022/03/30 02:07:52;;;;;;;4.67;2.90;;;16.60;47.10;;;;;;4952383;28;20531;-82
2022/03/30 02:10:21;;;;;;;3.93;2.90;;;16.60;47.10;;;;;;4966673;29;20471;-82
2022/03/30 02:12:50;;;;;;;6.30;2.90;;;16.50;47.10;;;;;;4973792;28;20442;-82
2022/03/30 02:15:18;;;;;;;5.20;3.00;;;16.50;47.10;;;;;;4974207;28;20450;-82
2022/03/30 02:17:46;;;;;;;5.47;3.20;;;16.50;47.10;;;;;;4971834;28;20467;-82
2022/03/30 02:20:15;;;;;;;4.40;2.90;;;16.50;47.10;;;;;;4971688;28;20446;-82
2022/03/30 02:22:43;;;;;;;4.33;2.90;;;16.50;47.10;;;;;;4959051;28;20476;-81
2022/03/30 02:25:11;;;;;;;7.27;3.20;;;16.60;47.20;;;;;;4957401;28;20452;-82
2022/03/30 02:27:39;;;;;;;3.13;2.73;;;16.50;47.10;;;;;;4953090;28;20476;-81
2022/03/30 02:30:09;;;;;;;8.00;2.77;;;16.50;47.10;;;;;;4954134;28;20476;-81
2022/03/30 02:32:40;;;;;;;3.40;2.67;;;16.50;47.10;;;;;;4947767;29;20440;-81
2022/03/30 02:35:09;;;;;;;3.20;2.90;;;16.50;47.20;;;;;;4945078;28;20444;-81
2022/03/30 02:37:37;;;;;;;4.37;3.10;;;16.50;47.20;;;;;;4945057;28;20475;-81
2022/03/30 02:40:06;;;;;;;4.80;2.90;;;16.50;47.30;;;;;;4950093;28;20453;-81
2022/03/30 02:42:34;;;;;;;3.93;2.53;;;16.50;47.20;;;;;;4964578;28;20451;-81
2022/03/30 02:45:02;;;;;;;5.10;2.73;;;16.50;47.20;;;;;;4963390;28;20451;-82
2022/03/30 02:50:17;;;;;;;3.07;2.40;;;16.50;47.20;;;;;;4963937;28;20510;-81
2022/03/30 02:52:45;;;;;;;3.30;2.63;;;16.40;47.10;;;;;;4962800;28;20481;-81
2022/03/30 02:55:13;;;;;;;5.23;2.83;;;16.50;47.10;;;;;;4962510;28;20471;-81
2022/03/30 02:57:41;;;;;;;3.93;2.47;;;16.40;47.00;;;;;;4949373;28;20584;-81
2022/03/30 03:00:10;;;;;;;6.47;2.80;;;16.40;47.00;;;;;;4943316;29;20553;-81
2022/03/30 03:02:39;;;;;;;4.77;2.50;;;16.40;47.10;;;;;;4943100;29;20479;-82
2022/03/30 03:05:08;;;;;;;5.50;2.90;;;16.40;47.10;;;;;;4943343;29;20478;-81
2022/03/30 03:07:36;;;;;;;3.50;2.43;;;16.40;47.10;;;;;;4942084;28;20468;-81
2022/03/30 03:10:05;;;;;;;2.80;2.50;;;16.40;47.10;;;;;;4942644;29;20476;-82
2022/03/30 03:12:33;;;;;;;3.40;2.60;;;16.40;47.10;;;;;;4941935;29;20479;-82
2022/03/30 03:15:01;;;;;;;5.20;2.57;;;16.40;47.10;;;;;;4958870;29;20482;-82
2022/03/30 03:17:29;;;;;;;3.70;2.40;;;16.40;47.20;;;;;;4962249;28;20494;-82
2022/03/30 03:19:59;;;;;;;2.77;2.50;;;16.40;47.00;;;;;;4962030;28;20478;-81
2022/03/30 03:22:27;;;;;;;4.23;2.70;;;16.40;47.10;;;;;;4961164;28;20451;-81
2022/03/30 03:24:55;;;;;;;4.20;2.80;;;16.40;47.10;;;;;;4961060;28;20458;-82
2022/03/30 03:27:23;;;;;;;3.40;2.53;;;16.40;47.20;;;;;;4962553;28;20494;-82
2022/03/30 03:29:51;;;;;;;3.00;2.77;;;16.30;47.00;;;;;;4958097;28;20501;-82
2022/03/30 03:32:19;;;;;;;4.43;2.70;;;16.30;47.10;;;;;;4943803;28;20479;-82
2022/03/30 03:34:48;;;;;;;2.57;2.37;;;16.30;47.70;;;;;;4943833;28;20466;-82
2022/03/30 03:37:17;;;;;;;3.00;2.50;;;16.30;47.10;;;;;;4942624;28;20479;-82
2022/03/30 03:39:48;;;;;;;5.03;3.07;;;16.40;47.20;;;;;;4943013;29;20483;-82
2022/03/30 03:42:17;;;;;;;5.47;2.70;;;16.30;47.00;;;;;;4943451;29;20511;-81
2022/03/30 03:44:45;;;;;;;4.07;3.10;;;16.30;47.10;;;;;;4942490;28;20451;-81
2022/03/30 03:47:13;;;;;;;6.70;2.80;;;16.30;47.10;;;;;;4939656;28;20473;-81
2022/03/30 03:49:41;;;;;;;4.53;2.73;;;16.30;47.10;;;;;;4935975;29;20480;-81
2022/03/30 03:52:09;;;;;;;2.37;2.17;;;16.30;47.10;;;;;;4958074;28;20447;-81
2022/03/30 03:54:41;;;;;;;3.33;2.40;;;16.30;47.10;;;;;;4941505;29;20478;-82
2022/03/30 03:57:09;;;;;;;3.00;2.63;;;16.30;47.20;;;;;;4953014;28;20526;-82
2022/03/30 03:59:37;;;;;;;4.20;2.60;;;16.30;47.10;;;;;;4959862;28;20451;-81
2022/03/30 04:02:07;;;;;;;3.40;2.60;;;16.30;47.20;;;;;;4961199;28;20502;-81
2022/03/30 04:04:35;;;;;;;2.53;2.33;;;16.30;47.70;;;;;;4954103;28;20460;-81
2022/03/30 04:07:03;;;;;;;3.97;2.17;;;16.30;47.20;;;;;;4941208;29;20472;-81
2022/03/30 04:09:32;;;;;;;5.70;3.10;;;16.30;47.20;;;;;;4962234;28;20485;-81
2022/03/30 04:12:01;;;;;;;3.37;2.70;;;16.30;47.20;;;;;;4962096;28;20481;-81
2022/03/30 04:14:29;;;;;;;2.97;2.40;;;16.30;47.20;;;;;;4963581;28;20451;-81
2022/03/30 04:16:57;;;;;;;3.33;2.47;;;16.30;47.20;;;;;;4965890;28;20467;-81
2022/03/30 04:19:26;;;;;;;3.97;2.50;;;16.30;47.20;;;;;;4968524;28;20452;-81
2022/03/30 04:21:54;;;;;;;5.13;2.33;;;16.30;47.30;;;;;;4966894;28;20450;-81
2022/03/30 04:24:22;;;;;;;2.60;2.40;;;16.20;47.30;;;;;;4957286;28;20462;-81
2022/03/30 04:26:50;;;;;;;4.10;2.77;;;16.20;47.40;;;;;;4966228;28;20498;-81
2022/03/30 04:29:20;;;;;;;2.20;2.03;;;16.30;47.40;;;;;;4964138;28;20455;-81
2022/03/30 04:31:53;;;;;;;2.60;2.10;;;16.30;47.40;;;;;;4945824;29;20412;-81
2022/03/30 04:34:21;;;;;;;6.00;2.77;;;16.30;47.40;;;;;;4945981;29;20432;-81
2022/03/30 04:36:49;;;;;;;3.00;2.23;;;16.30;47.40;;;;;;4946375;29;20504;-81
2022/03/30 04:39:17;;;;;;;3.90;2.50;;;16.30;47.40;;;;;;4951192;29;20518;-81
2022/03/30 04:41:45;;;;;;;4.50;2.60;;;16.30;47.40;;;;;;4958757;28;20436;-81
2022/03/30 04:44:13;;;;;;;4.70;2.70;;;16.20;47.40;;;;;;4947153;28;20454;-81
2022/03/30 04:46:43;;;;;;;5.97;2.70;;;16.20;47.30;;;;;;4955364;28;20791;-81
2022/03/30 04:49:12;;;;;;;5.00;3.40;;;16.20;47.40;;;;;;4964341;28;20447;-81
2022/03/30 04:51:40;;;;;;;7.40;3.43;;;16.20;47.40;;;;;;4961114;28;20474;-81
2022/03/30 04:54:09;;;;;;;3.23;2.40;;;16.20;47.40;;;;;;4961304;28;20451;-81
2022/03/30 04:56:37;;;;;;;3.43;3.00;;;16.20;47.40;;;;;;4962397;28;20526;-81
2022/03/30 04:59:05;;;;;;;4.30;2.73;;;16.20;47.40;;;;;;4961410;28;20990;-82
2022/03/30 05:01:33;;;;;;;3.90;2.90;;;16.20;47.50;;;;;;4946940;28;20456;-79
2022/03/30 05:04:06;;;;;;;11.43;2.87;;;16.30;49.30;;;;;;4939997;28;20456;-81
2022/03/30 05:06:34;;;;;;;13.87;3.27;;;17.40;51.80;;;;;;4946090;29;20496;-83
2022/03/30 05:09:02;;;;;;;8.70;3.33;;;17.60;50.60;;;;;;4946102;29;20467;-82
2022/03/30 05:11:31;;;;;;;3.53;3.07;;;17.50;49.30;;;;;;4945137;29;20507;-82
2022/03/30 05:13:59;;;;;;;5.43;2.70;;;17.40;49.60;;;;;;4950076;29;20452;-83
2022/03/30 05:16:28;;;;;;;5.30;2.73;;;17.10;50.10;;;;;;4949205;29;20531;-83
2022/03/30 05:18:56;;;;;;;6.20;3.27;;;17.00;50.20;;;;;;4953836;29;20486;-83
2022/03/30 05:21:25;;;;;;;5.30;2.70;;;16.90;50.30;;;;;;4956650;28;20491;-83
2022/03/30 05:23:54;;;;;;;5.13;2.57;;;16.80;50.40;;;;;;4950330;28;20479;-83
2022/03/30 05:26:22;;;;;;;2.50;2.30;;;16.70;50.40;;;;;;4950237;28;20480;-83
2022/03/30 05:28:50;;;;;;;4.17;2.77;;;16.70;50.40;;;;;;4944357;28;20443;-84
2022/03/30 05:31:18;;;;;;;6.40;3.30;;;16.60;50.50;;;;;;4954554;28;20474;-85
2022/03/30 05:33:46;;;;;;;2.97;2.70;;;16.60;50.40;;;;;;4954215;28;20447;-85
2022/03/30 05:36:14;;;;;;;4.80;3.00;;;16.60;50.40;;;;;;4949127;28;20585;-85
2022/03/30 05:38:44;;;;;;;3.27;2.97;;;16.50;50.30;;;;;;4949143;28;20460;-84
2022/03/30 05:41:12;;;;;;;4.07;2.83;;;16.50;50.30;;;;;;4954127;29;20445;-84
2022/03/30 05:43:40;;;;;;;7.20;2.87;;;16.40;50.20;;;;;;4953253;28;20452;-84
2022/03/30 05:46:08;;;;;;;3.30;2.80;;;16.50;50.30;;;;;;4952306;29;20460;-85
2022/03/30 05:48:37;;;;;;;5.73;2.80;;;16.50;50.20;;;;;;4943358;29;20459;-84
2022/03/30 05:51:05;;;;;;;5.40;2.97;;;16.40;50.20;;;;;;4943818;28;20510;-84
2022/03/30 05:53:34;;;;;;;6.77;3.40;;;16.40;50.20;;;;;;4944893;28;20483;-85
2022/03/30 05:56:03;;;;;;;11.10;3.33;;;16.40;50.20;;;;;;4945042;29;20456;-85
2022/03/30 05:58:31;;;;;;;5.40;3.03;;;16.40;50.30;;;;;;4945829;28;20484;-85
2022/03/30 06:01:04;;;;;;;4.07;3.07;;;16.40;50.10;;;;;;4944611;28;20444;-84
2022/03/30 06:03:37;;;;;;;3.10;2.80;;;16.40;50.10;;;;;;4944799;28;20455;-84
2022/03/30 06:06:06;;;;;;;9.07;3.20;;;16.40;50.10;;;;;;4941274;28;20510;-85
2022/03/30 06:08:34;;;;;;;5.47;3.00;;;16.40;50.20;;;;;;4940360;28;20452;-84
2022/03/30 06:11:04;;;;;;;6.53;3.20;;;16.40;50.10;;;;;;4939572;29;20503;-85
2022/03/30 06:13:32;;;;;;;5.40;3.33;;;16.30;50.00;;;;;;4938296;29;20530;-85
2022/03/30 06:16:02;;;;;;;4.07;2.97;;;16.40;50.10;;;;;;4938180;29;20459;-85
2022/03/30 06:18:31;;;;;;;3.60;3.10;;;16.40;50.10;;;;;;4938840;29;20448;-85
2022/03/30 06:20:59;;;;;;;5.33;2.83;;;16.40;50.00;;;;;;4938250;29;20448;-85
2022/03/30 06:23:27;;;;;;;3.40;3.00;;;16.40;50.00;;;;;;4937466;29;21034;-85
2022/03/30 06:25:55;;;;;;;4.83;3.10;;;16.40;50.00;;;;;;4940302;28;20449;-86
2022/03/30 06:28:27;;;;;;;4.33;2.70;;;16.40;50.00;;;;;;4934624;29;20473;-87
2022/03/30 06:30:55;;;;;;;7.70;2.67;;;16.40;50.00;;;;;;4933548;29;20476;-83
2022/03/30 06:33:23;;;;;;;5.60;2.80;;;16.30;49.90;;;;;;4933780;29;20456;-84
2022/03/30 06:35:51;;;;;;;6.00;3.30;;;16.30;50.00;;;;;;4935100;29;20444;-86
2022/03/30 06:38:19;;;;;;;6.13;2.80;;;16.30;49.90;;;;;;4926894;29;20480;-86
2022/03/30 06:40:47;;;;;;;5.60;3.10;;;16.30;49.90;;;;;;4924639;29;20476;-85
2022/03/30 06:43:15;;;;;;;3.40;2.90;;;16.40;50.00;;;;;;4924754;29;20456;-84
2022/03/30 06:45:46;;;;;;;3.60;2.80;;;16.40;50.00;;;;;;4924151;29;20488;-86
2022/03/30 06:48:14;;;;;;;4.13;2.90;;;16.30;49.90;;;;;;4924407;29;20504;-86
2022/03/30 06:50:42;;;;;;;7.70;3.30;;;16.40;50.00;;;;;;4925309;29;20452;-85
2022/03/30 06:53:10;;;;;;;5.70;2.80;;;16.40;49.90;;;;;;4926581;29;20453;-86
2022/03/30 06:55:40;;;;;;;5.53;3.40;;;16.50;49.90;;;;;;4926882;29;20457;-86
2022/03/30 06:58:08;;;;;;;3.93;2.80;;;16.50;49.90;;;;;;4924318;29;20505;-86
2022/03/30 07:00:36;;;;;;;3.10;2.90;;;16.50;49.80;;;;;;4925056;29;20452;-85
2022/03/30 07:03:06;;;;;;;3.67;3.30;;;16.50;49.80;;;;;;4924599;29;20449;-85
2022/03/30 07:05:37;;;;;;;6.43;3.40;;;16.50;49.70;;;;;;4924440;29;20453;-86
2022/03/30 07:10:51;;;;;;;5.37;3.23;;;16.60;49.60;;;;;;4946871;28;20522;-85
2022/03/30 07:13:21;;;;;;;5.37;2.93;;;16.60;49.70;;;;;;4952913;28;20478;-85
2022/03/30 07:15:49;;;;;;;2.93;2.50;;;16.60;49.60;;;;;;4960715;28;20451;-82
2022/03/30 07:18:19;;;;;;;3.13;2.70;;;16.60;49.60;;;;;;4956438;28;20476;-83
2022/03/30 07:20:47;;;;;;;9.27;3.23;;;16.60;49.50;;;;;;4941373;29;20471;-85
2022/03/30 07:23:16;;;;;;;6.20;2.87;;;16.60;49.30;;;;;;4943052;29;20444;-85
2022/03/30 07:25:44;;;;;;;4.53;3.17;;;16.60;49.10;;;;;;4947834;29;20443;-85
2022/03/30 07:28:15;;;;;;;4.93;2.90;;;16.60;49.10;;;;;;4946662;28;20523;-83
2022/03/30 07:30:48;;;;;;;3.77;2.93;;;16.60;48.80;;;;;;4939470;29;20459;-85
2022/03/30 07:33:25;;;;;;;3.00;2.80;;;16.70;48.70;;;;;;4950900;28;20508;-85
2022/03/30 07:35:55;;;;;;;5.33;2.97;;;16.70;48.50;;;;;;4947693;29;20487;-85
2022/03/30 07:38:31;;;;;;;6.07;3.10;;;16.70;48.20;;;;;;4952402;28;20555;-85
2022/03/30 07:41:13;;;;;;;6.10;2.73;;;16.70;48.00;;;;;;4954740;28;20490;-85
2022/03/30 07:43:52;;;;;;;3.93;2.50;;;16.70;47.90;;;;;;4949153;28;20463;-85
2022/03/30 07:46:25;;;;;;;2.93;2.70;;;16.70;47.70;;;;;;4947618;28;20471;-85
2022/03/30 07:48:57;;;;;;;3.93;2.80;;;16.70;47.60;;;;;;4949850;29;20447;-85
2022/03/30 07:51:27;;;;;;;6.70;3.30;;;16.70;47.60;;;;;;4944474;28;20463;-85
2022/03/30 07:53:55;;;;;;;4.17;2.90;;;16.70;47.50;;;;;;4951831;29;20448;-84
2022/03/30 07:56:23;;;;;;;3.77;3.30;;;16.70;47.40;;;;;;4950545;28;20495;-85
2022/03/30 07:58:56;;;;;;;4.00;3.10;;;16.70;47.30;;;;;;4951942;28;20468;-85
2022/03/30 08:01:25;;;;;;;3.27;2.97;;;16.70;47.30;;;;;;4949502;28;20488;-85
2022/03/30 08:03:57;;;;;;;4.13;3.13;;;16.70;47.30;;;;;;4954683;29;20501;-85
2022/03/30 08:06:26;;;;;;;5.97;2.80;;;16.70;47.20;;;;;;4949196;29;20475;-84
2022/03/30 08:08:54;;;;;;;6.00;2.97;;;16.60;47.00;;;;;;4953199;28;20888;-84
2022/03/30 08:11:22;;;;;;;4.70;2.63;;;16.60;47.00;;;;;;4947772;29;20444;-85
2022/03/30 08:13:51;;;;;;;2.83;2.50;;;16.60;46.80;;;;;;4945414;28;20447;-84
2022/03/30 08:16:20;;;;;;;6.50;3.40;;;16.60;46.80;;;;;;4953729;28;20466;-83
2022/03/30 08:18:48;;;;;;;3.07;2.80;;;16.60;46.60;;;;;;4952019;28;20448;-85
2022/03/30 08:24:03;;;;;;;5.30;2.60;;;16.60;46.50;;;;;;4953567;28;20452;-85
2022/03/30 08:26:33;;;;;;;3.33;2.90;;;16.60;46.30;;;;;;4950943;28;20466;-85
2022/03/30 08:29:01;;;;;;;3.03;2.60;;;16.70;46.40;;;;;;4948450;29;20435;-84
2022/03/30 08:31:49;;;;;;;3.63;2.50;;;16.70;46.10;;;;;;4961898;28;20499;-85
2022/03/30 08:34:19;;;;;;;4.10;2.10;;;16.80;45.90;;;;;;4954741;28;20475;-84
2022/03/30 08:36:48;;;;;;;3.97;2.50;;;16.80;45.80;;;;;;4953670;28;20476;-84
2022/03/30 08:39:18;;;;;;;4.20;2.93;;;16.80;45.80;;;;;;4951761;29;20531;-84
2022/03/30 08:41:47;;;;;;;2.60;2.33;;;16.70;45.70;;;;;;4946303;28;20475;-85
2022/03/30 08:44:16;;;;;;;2.87;2.67;;;16.70;45.70;;;;;;4951311;29;20456;-84
2022/03/30 08:46:45;;;;;;;2.50;2.30;;;16.70;45.60;;;;;;4949087;28;20543;-84
2022/03/30 08:49:13;;;;;;;2.53;2.33;;;16.70;45.50;;;;;;4954882;29;20451;-84
2022/03/30 08:51:45;;;;;;;4.70;2.57;;;16.70;45.60;;;;;;4957680;28;20474;-84
2022/03/30 08:54:15;;;;;;;5.00;3.07;;;16.60;46.10;;;;;;4954285;28;20504;-84
2022/03/30 08:56:43;;;;;;;2.37;2.17;;;16.60;45.60;;;;;;4950667;28;20469;-85
2022/03/30 08:59:16;;;;;;;2.63;2.40;;;16.60;45.50;;;;;;4952678;28;20478;-84
2022/03/30 09:01:45;;;;;;;3.60;2.10;;;16.60;45.40;;;;;;4952181;29;20488;-84
2022/03/30 09:04:15;;;;;;;2.87;2.10;;;16.60;45.40;;;;;;4953633;28;21025;-84
2022/03/30 09:06:45;;;;;;;4.50;2.40;;;16.50;45.40;;;;;;4950880;28;20512;-84
2022/03/30 09:09:14;;;;;;;2.57;2.30;;;16.50;45.40;;;;;;4949580;28;20517;-84
2022/03/30 09:11:53;;;;;;;3.73;2.30;;;16.50;45.40;;;;;;4948672;29;20464;-84
2022/03/30 09:14:33;;;;;;;2.20;2.00;;;16.50;45.40;;;;;;4944111;28;20498;-84
2022/03/30 09:17:11;;;;;;;2.60;2.10;;;16.50;45.40;;;;;;4948186;28;20479;-85
2022/03/30 09:19:41;;;;;;;2.00;1.90;;;16.40;45.10;;;;;;4947506;29;20446;-84
2022/03/30 09:22:10;;;;;;;3.30;2.43;;;16.40;45.10;;;;;;4948110;28;20456;-83
2022/03/30 09:24:45;;;;;;;2.43;2.23;;;16.40;44.90;;;;;;4945304;28;20450;-84
2022/03/30 09:27:22;;;;;;;2.20;2.07;;;16.40;45.00;;;;;;4945727;28;20463;-86
2022/03/30 09:29:57;;;;;;;2.30;2.00;;;16.40;44.90;;;;;;4944266;28;20460;-85
2022/03/30 09:32:28;;;;;;;9.27;1.80;;;16.40;44.90;;;;;;4947068;28;20479;-86
2022/03/30 09:34:59;;;;;;;2.00;1.90;;;16.40;44.90;;;;;;4946939;28;20478;-84
2022/03/30 09:37:27;;;;;;;3.30;1.87;;;16.40;45.10;;;;;;4950152;28;20485;-84
2022/03/30 09:39:57;;;;;;;1.97;1.87;;;16.40;45.20;;;;;;4944170;28;20476;-85
2022/03/30 09:42:28;;;;;;;2.20;2.00;;;16.40;45.20;;;;;;4951105;28;20452;-83
2022/03/30 09:44:56;;;;;;;2.37;1.60;;;16.40;45.30;;;;;;4953038;28;20447;-85
2022/03/30 09:47:25;;;;;;;1.87;1.77;;;16.40;45.40;;;;;;4948140;28;20507;-85
2022/03/30 09:49:53;;;;;;;2.33;1.77;;;16.40;45.60;;;;;;4949260;28;20459;-85
2022/03/30 09:52:22;;;;;;;3.13;1.80;;;16.50;45.60;;;;;;4948657;28;20478;-85
2022/03/30 09:54:53;;;;;;;2.83;1.93;;;16.40;45.60;;;;;;4950739;29;20459;-84
2022/03/30 09:57:24;;;;;;;1.90;1.80;;;16.50;45.70;;;;;;4953617;28;20474;-83
2022/03/30 10:00:05;;;;;;;1.90;1.80;;;16.50;45.70;;;;;;4949386;29;20452;-85
2022/03/30 10:02:34;;;;;;;2.83;2.30;;;16.50;45.90;;;;;;4951464;28;20428;-85
2022/03/30 10:05:03;;;;;;;2.20;2.10;;;16.50;45.80;;;;;;4952580;28;20523;-85
2022/03/30 10:07:31;;;;;;;2.03;1.83;;;16.50;46.40;;;;;;4947807;28;20475;-84
2022/03/30 10:09:59;;;;;;;2.10;2.00;;;16.50;45.80;;;;;;4952607;29;20475;-85
2022/03/30 10:12:29;;;;;;;2.00;1.90;;;16.60;45.90;;;;;;4950702;29;20448;-85
2022/03/30 10:14:57;;;;;;;3.20;2.00;;;16.60;46.00;;;;;;4954165;29;20455;-84
2022/03/30 10:17:26;;;;;;;1.93;1.83;;;16.60;46.00;;;;;;4952182;28;20472;-85
2022/03/30 10:19:57;;;;;;;2.10;2.00;;;16.60;46.00;;;;;;4951401;29;20478;-85
2022/03/30 10:22:47;;;;;;;1.93;1.73;;;16.70;46.20;;;;;;4949097;29;20471;-85
2022/03/30 10:25:23;;;;;;;2.70;2.20;;;16.70;46.00;;;;;;4949000;29;20462;-85
2022/03/30 10:27:54;;;;;;;1.73;1.63;;;16.80;46.10;;;;;;4951392;28;20501;-84
2022/03/30 10:30:26;;;;;;;1.90;1.80;;;16.80;46.00;;;;;;4954197;29;20452;-86
2022/03/30 10:32:55;;;;;;;2.23;1.83;;;16.90;46.00;;;;;;4957456;28;20502;-86
2022/03/30 10:35:26;;;;;;;2.50;2.30;;;16.90;45.90;;;;;;4954432;28;20508;-84
2022/03/30 10:38:00;;;;;;;2.47;2.27;;;17.00;45.90;;;;;;4950015;28;20503;-85
2022/03/30 10:40:31;;;;;;;2.63;2.10;;;17.10;45.80;;;;;;4950958;28;20462;-85
2022/03/30 10:43:09;;;;;;;2.10;2.00;;;17.10;45.80;;;;;;4946880;28;20466;-85
2022/03/30 10:45:51;;;;;;;2.53;2.20;;;17.30;45.80;;;;;;4955641;29;20470;-84
2022/03/30 10:48:38;;;;;;;2.33;2.13;;;17.30;45.60;;;;;;4957843;29;20463;-85
2022/03/30 10:51:21;;;;;;;2.50;2.30;;;17.40;45.60;;;;;;4943586;28;20443;-85
2022/03/30 10:53:51;;;;;;;2.00;1.90;;;17.50;45.40;;;;;;4950611;28;20483;-84
2022/03/30 10:56:28;;;;;;;1.70;1.60;;;17.60;45.40;;;;;;4950610;28;20491;-84
2022/03/30 10:59:11;;;;;;;2.03;1.93;;;17.70;45.40;;;;;;4952270;28;20451;-84
2022/03/30 11:01:41;;;;;;;2.77;2.53;;;17.70;45.30;;;;;;4948789;28;20485;-85
2022/03/30 11:04:24;;;;;;;1.83;1.73;;;17.80;45.20;;;;;;4952607;28;20443;-85
2022/03/30 11:07:34;;;;;;;2.40;1.87;;;18.00;45.10;;;;;;4950142;28;20549;-85
2022/03/30 11:10:19;;;;;;;2.40;2.20;;;18.10;45.00;;;;;;4946528;28;20495;-83
2022/03/30 11:13:02;;;;;;;1.50;1.50;;;18.40;44.80;;;;;;4949197;29;20871;-84
2022/03/30 11:15:32;;;;;;;3.43;2.00;;;18.60;44.70;;;;;;4947057;29;20426;-84
2022/03/30 11:18:18;;;;;;;2.73;2.33;;;18.80;44.10;;;;;;4947907;28;20472;-85
2022/03/30 11:21:16;;;;;;;2.00;1.90;;;19.00;43.80;;;;;;4948940;29;20446;-85
2022/03/30 11:24:04;;;;;;;2.43;2.00;;;19.10;44.10;;;;;;4949905;29;20542;-85
2022/03/30 11:27:18;;;;;;;2.27;2.17;;;19.50;43.50;;;;;;4949935;29;20541;-84
2022/03/30 11:30:05;;;;;;;1.87;1.77;;;19.80;43.40;;;;;;4926778;29;20738;-83
2022/03/30 11:33:10;;;;;;;2.90;1.90;;;20.10;43.30;;;;;;4935571;28;21083;-82
2022/03/30 11:35:42;;;;;;;2.13;2.00;;;20.60;42.30;;;;;;4951132;28;20452;-83
2022/03/30 11:38:24;;;;;;;2.10;1.97;;;20.80;41.90;;;;;;4950592;29;20481;-84
2022/03/30 11:40:57;;;;;;;2.67;2.47;;;21.10;41.70;;;;;;4952332;28;20479;-83
2022/03/30 11:43:25;;;;;;;2.60;1.90;;;21.40;41.40;;;;;;4953635;29;20444;-84
2022/03/30 11:46:00;;;;;;;2.10;2.00;;;21.70;40.90;;;;;;4948219;28;20422;-83
2022/03/30 11:48:37;;;;;;;2.30;2.20;;;22.10;40.50;;;;;;4951313;28;20448;-86
2022/03/30 11:51:10;;;;;;;2.20;1.73;;;22.50;39.80;;;;;;4949550;28;20505;-84
2022/03/30 11:53:39;;;;;;;2.00;1.90;;;22.70;39.40;;;;;;4948499;29;20458;-85
2022/03/30 11:56:10;;;;;;;2.53;2.40;;;23.00;39.30;;;;;;4958338;29;20419;-83
2022/03/30 11:58:39;;;;;;;2.27;2.10;;;23.40;38.90;;;;;;4958865;28;20442;-80
2022/03/30 12:01:08;;;;;;;2.30;2.13;;;23.80;38.40;;;;;;4953959;28;20475;-81
2022/03/30 12:03:37;;;;;;;4.10;2.20;;;24.40;38.00;;;;;;4948226;29;20447;-83
2022/03/30 12:06:06;;;;;;;2.00;1.90;;;24.80;37.40;;;;;;4942677;29;20460;-83
2022/03/30 12:08:40;;;;;;;1.80;1.70;;;25.20;36.80;;;;;;4943292;28;20459;-82
2022/03/30 12:11:08;;;;;;;2.00;1.87;;;25.70;36.40;;;;;;4946416;28;20520;-83
2022/03/30 12:13:36;;;;;;;1.77;1.67;;;25.70;35.70;;;;;;4941550;29;20463;-84
2022/03/30 12:16:06;;;;;;;2.30;2.20;;;25.40;35.50;;;;;;4953107;28;20460;-80
2022/03/30 12:18:42;;;;;;;10.00;2.87;;;25.00;36.40;;;;;;4958523;28;20435;-80
2022/03/30 12:21:10;;;;;;;11.30;2.80;;;24.90;38.30;;;;;;4958166;28;20419;-82
2022/03/30 12:23:39;;;;;;;6.67;2.87;;;26.00;38.60;;;;;;4954066;29;20423;-80
2022/03/30 12:26:27;;;;;;;6.00;2.50;;;26.90;37.00;;;;;;4954186;28;20526;-80
2022/03/30 12:29:03;;;;;;;10.97;2.30;;;27.00;35.20;;;;;;4951873;29;20441;-81
2022/03/30 12:31:34;;;;;;;4.30;2.40;;;27.30;35.60;;;;;;4952662;29;20454;-81
2022/03/30 12:34:10;;;;;;;5.30;2.23;;;27.40;34.80;;;;;;4952242;28;20471;-82
2022/03/30 12:36:42;;;;;;;6.33;2.30;;;27.00;34.90;;;;;;4953985;29;20502;-81
2022/03/30 12:39:16;;;;;;;5.63;2.20;;;26.30;35.40;;;;;;4950373;28;20461;-81
2022/03/30 12:41:44;;;;;;;5.03;2.20;;;25.80;36.00;;;;;;4952032;28;20617;-80
2022/03/30 12:44:12;;;;;;;3.20;2.03;;;25.30;36.90;;;;;;4949299;28;20474;-80
2022/03/30 12:46:41;;;;;;;3.37;2.13;;;24.90;37.70;;;;;;4942096;29;20492;-80
2022/03/30 12:49:10;;;;;;;8.73;2.10;;;24.60;37.90;;;;;;4942005;28;20863;-81
2022/03/30 12:51:39;;;;;;;4.03;2.07;;;23.80;39.80;;;;;;4934105;29;20467;-80
2022/03/30 12:54:20;;;;;;;2.60;2.20;;;23.30;41.20;;;;;;4935222;29;20436;-81
2022/03/30 12:56:48;;;;;;;4.77;2.20;;;22.90;41.90;;;;;;4929657;28;21057;-80
2022/03/30 12:59:18;;;;;;;9.80;2.10;;;22.80;42.50;;;;;;4934802;29;20432;-82
2022/03/30 13:01:49;;;;;;;7.67;2.00;;;22.60;42.90;;;;;;4933353;29;20484;-79
2022/03/30 13:04:20;;;;;;;7.80;2.13;;;22.70;42.90;;;;;;4931310;29;20461;-77
2022/03/30 13:07:22;;;;;;;10.23;2.27;;;22.90;42.60;;;;;;4933320;28;20555;-77
2022/03/30 13:10:28;;;;;;;2.70;1.97;;;22.80;43.50;;;;;;4930197;29;20451;-79
2022/03/30 13:13:52;;;;;;;6.10;2.23;;;22.30;44.80;;;;;;4927262;28;20456;-77
2022/03/30 13:16:29;;;;;;;4.07;2.30;;;21.80;45.80;;;;;;4912221;28;20461;-78